createdAt,value
2022-10-06T00:02:07.806Z,101926.47
2022-10-06T00:04:35.487Z,101926.25
2022-10-06T00:07:01.785Z,101930.28
2022-10-06T00:09:28.079Z,101937.31
2022-10-06T00:11:54.342Z,101949.53
2022-10-06T00:14:20.727Z,101955.84
2022-10-06T00:16:47.007Z,101959.06
2022-10-06T00:19:13.293Z,101967.38
2022-10-06T00:21:41.049Z,101971.03
2022-10-06T00:24:07.336Z,101971.78
2022-10-06T00:26:33.635Z,101973.91
2022-10-06T00:28:59.923Z,101979.56
2022-10-06T00:31:26.500Z,101989.56
2022-10-06T00:33:52.830Z,101987.88
2022-10-06T00:36:19.172Z,101991.13
2022-10-06T00:38:46.834Z,101992.09
2022-10-06T00:41:13.641Z,102002.97
2022-10-06T00:43:44.780Z,102001.00
2022-10-06T00:46:13.325Z,102003.66
2022-10-06T00:48:39.775Z,102006.47
2022-10-06T00:51:06.202Z,102009.16
2022-10-06T00:53:33.165Z,102017.63
2022-10-06T00:56:00.773Z,102020.84
2022-10-06T00:58:27.457Z,102022.84
2022-10-06T01:00:54.552Z,102021.16
2022-10-06T01:03:23.858Z,102021.69
2022-10-06T01:05:50.993Z,102027.47
2022-10-06T01:08:17.679Z,102032.13
2022-10-06T01:10:44.080Z,102038.03
2022-10-06T01:13:12.041Z,102046.88
2022-10-06T01:15:40.170Z,102042.19
2022-10-06T01:18:10.200Z,102053.03
2022-10-06T01:20:36.504Z,102051.91
2022-10-06T01:23:06.111Z,102057.69
2022-10-06T01:25:33.045Z,102056.84
2022-10-06T01:28:01.465Z,102064.13
2022-10-06T01:30:29.966Z,102059.94
2022-10-06T01:32:56.272Z,102061.06
2022-10-06T01:35:23.322Z,102086.22
2022-10-06T01:37:49.625Z,102084.66
2022-10-06T01:40:17.306Z,102085.25
2022-10-06T01:42:43.596Z,102093.53
2022-10-06T01:45:10.352Z,102098.84
2022-10-06T01:47:36.645Z,102103.91
2022-10-06T01:50:03.021Z,102101.53
2022-10-06T01:52:29.299Z,102107.13
2022-10-06T01:54:55.563Z,102105.72
2022-10-06T01:57:26.445Z,102112.44
2022-10-06T01:59:54.720Z,102112.44
2022-10-06T02:02:21.408Z,102112.88
2022-10-06T02:04:47.732Z,102111.03
2022-10-06T02:07:14.167Z,102114.69
2022-10-06T02:09:40.470Z,102124.38
2022-10-06T02:12:06.755Z,102123.41
2022-10-06T02:14:34.376Z,102123.41
2022-10-06T02:17:00.688Z,102128.03
2022-10-06T02:19:26.969Z,102141.81
2022-10-06T02:21:53.263Z,102138.81
2022-10-06T02:24:19.538Z,102145.84
2022-10-06T02:26:45.821Z,102146.97
2022-10-06T02:29:12.095Z,102148.66
2022-10-06T02:31:39.735Z,102149.94
2022-10-06T02:34:06.044Z,102154.81
2022-10-06T02:36:32.325Z,102150.59
2022-10-06T02:38:58.631Z,102160.72
2022-10-06T02:41:24.981Z,102165.47
2022-10-06T02:43:51.293Z,102168.53
2022-10-06T02:46:17.609Z,102172.47
2022-10-06T02:48:45.278Z,102172.47
2022-10-06T02:51:12.295Z,102173.00
2022-10-06T02:53:38.665Z,102179.84
2022-10-06T02:56:06.236Z,102187.28
2022-10-06T02:58:32.970Z,102192.03
2022-10-06T03:01:02.486Z,102186.97
2022-10-06T03:03:28.868Z,102202.13
2022-10-06T03:05:59.933Z,102202.25
2022-10-06T03:08:26.578Z,102208.56
2022-10-06T03:10:58.854Z,102211.34
2022-10-06T03:13:25.170Z,102217.94
2022-10-06T03:15:51.554Z,102223.66
2022-10-06T03:18:17.890Z,102219.88
2022-10-06T03:20:44.167Z,102226.44
2022-10-06T03:23:13.698Z,102235.41
2022-10-06T03:25:40.083Z,102244.66
2022-10-06T03:28:06.418Z,102246.47
2022-10-06T03:30:32.757Z,102241.66
2022-10-06T03:32:59.014Z,102252.59
2022-10-06T03:35:25.313Z,102258.91
2022-10-06T03:37:51.585Z,102257.03
2022-10-06T03:40:19.212Z,102257.66
2022-10-06T03:42:45.494Z,102263.81
2022-10-06T03:45:11.810Z,102271.09
2022-10-06T03:47:38.086Z,102274.16
2022-10-06T03:50:04.584Z,102275.25
2022-10-06T03:52:30.859Z,102274.91
2022-10-06T03:54:57.164Z,102281.31
2022-10-06T03:57:24.770Z,102280.59
2022-10-06T03:59:51.060Z,102281.31
2022-10-06T04:02:17.361Z,102285.78
2022-10-06T04:04:43.648Z,102292.94
2022-10-06T04:07:09.936Z,102294.88
2022-10-06T04:09:36.219Z,102301.16
2022-10-06T04:12:02.520Z,102310.00
2022-10-06T04:14:30.136Z,102309.16
2022-10-06T04:16:56.431Z,102322.13
2022-10-06T04:19:22.821Z,102318.16
2022-10-06T04:21:49.118Z,102326.13
2022-10-06T04:24:15.418Z,102333.38
2022-10-06T04:26:42.862Z,102329.63
2022-10-06T04:29:09.136Z,102333.53
2022-10-06T04:31:37.858Z,102334.50
2022-10-06T04:34:04.820Z,102342.97
2022-10-06T04:36:31.750Z,102334.78
2022-10-06T04:38:59.104Z,102338.75
2022-10-06T04:41:26.530Z,102346.91
2022-10-06T04:43:52.846Z,102345.69
2022-10-06T04:46:41.668Z,102352.56
2022-10-06T04:49:07.928Z,102352.56
2022-10-06T04:51:34.258Z,102357.88
2022-10-06T04:54:00.552Z,102359.59
2022-10-06T04:56:27.645Z,102364.28
2022-10-06T04:58:55.069Z,102366.22
2022-10-06T05:01:22.583Z,102366.84
2022-10-06T05:03:49.923Z,102371.69
2022-10-06T05:06:18.457Z,102376.28
2022-10-06T05:08:47.381Z,102384.72
2022-10-06T05:11:15.115Z,102388.84
2022-10-06T05:13:43.173Z,102391.63
2022-10-06T05:16:11.727Z,102400.78
2022-10-06T05:18:38.241Z,102402.88
2022-10-06T05:21:06.763Z,102406.81
2022-10-06T05:23:36.858Z,102417.00
2022-10-06T05:26:03.202Z,102418.28
2022-10-06T05:28:30.865Z,102426.53
2022-10-06T05:30:58.369Z,102432.91
2022-10-06T05:33:25.285Z,102428.19
2022-10-06T05:35:51.901Z,102426.25
2022-10-06T05:38:18.185Z,102435.94
2022-10-06T05:40:45.784Z,102434.97
2022-10-06T05:43:12.079Z,102446.34
2022-10-06T05:45:38.436Z,102447.78
2022-10-06T05:48:04.772Z,102451.50
2022-10-06T05:50:31.067Z,102461.88
2022-10-06T05:52:57.337Z,102455.00
2022-10-06T05:55:23.628Z,102466.25
2022-10-06T05:57:53.936Z,102469.84
2022-10-06T06:00:20.234Z,102475.78
2022-10-06T06:02:46.594Z,102475.06
2022-10-06T06:05:12.933Z,102476.75
2022-10-06T06:07:39.216Z,102479.31
2022-10-06T06:10:05.827Z,102481.97
2022-10-06T06:12:32.084Z,102486.31
2022-10-06T06:14:59.726Z,102490.78
2022-10-06T06:17:25.994Z,102496.84
2022-10-06T06:19:52.260Z,102496.84
2022-10-06T06:22:18.567Z,102490.44
2022-10-06T06:24:44.851Z,102497.19
2022-10-06T06:27:11.154Z,102495.28
2022-10-06T06:29:37.420Z,102499.63
2022-10-06T06:32:05.047Z,102510.03
2022-10-06T06:34:31.334Z,102509.78
2022-10-06T06:37:00.145Z,102505.22
2022-10-06T06:39:29.936Z,102504.13
2022-10-06T06:41:56.213Z,102505.81
2022-10-06T06:44:22.510Z,102508.16
2022-10-06T06:46:48.779Z,102516.81
2022-10-06T06:49:16.732Z,102524.47
2022-10-06T06:51:43.732Z,102534.03
2022-10-06T06:54:10.723Z,102538.13
2022-10-06T06:56:37.167Z,102537.06
2022-10-06T06:59:03.987Z,102542.38
2022-10-06T07:01:30.421Z,102550.84
2022-10-06T07:03:58.561Z,102548.78
2022-10-06T07:06:28.205Z,102553.88
2022-10-06T07:08:55.372Z,102550.88
2022-10-06T07:11:22.858Z,102558.59
2022-10-06T07:13:51.585Z,102562.84
2022-10-06T07:16:18.292Z,102571.22
2022-10-06T07:18:44.564Z,102572.66
2022-10-06T07:21:11.488Z,102574.13
2022-10-06T07:23:39.136Z,102586.19
2022-10-06T07:26:05.567Z,102587.66
2022-10-06T07:28:31.895Z,102586.47
2022-10-06T07:30:58.423Z,102588.75
2022-10-06T07:33:24.728Z,102592.78
2022-10-06T07:35:51.029Z,102612.84
2022-10-06T07:38:17.302Z,102608.78
2022-10-06T07:40:50.484Z,102609.25
2022-10-06T07:43:21.973Z,102607.81
2022-10-06T07:45:48.370Z,102617.97
2022-10-06T07:48:15.571Z,102622.94
2022-10-06T07:50:42.057Z,102632.13
2022-10-06T07:53:08.363Z,102619.03
2022-10-06T07:55:35.077Z,102636.38
2022-10-06T07:58:02.731Z,102632.22
2022-10-06T08:00:29.072Z,102637.06
2022-10-06T08:02:55.418Z,102640.94
2022-10-06T08:05:21.873Z,102640.69
2022-10-06T08:07:48.165Z,102648.19
2022-10-06T08:10:14.440Z,102636.06
2022-10-06T08:12:40.816Z,102643.53
2022-10-06T08:15:09.644Z,102648.34
2022-10-06T08:17:36.133Z,102646.19
2022-10-06T08:20:02.511Z,102652.69
2022-10-06T08:22:28.804Z,102650.94
2022-10-06T08:25:05.796Z,102654.81
2022-10-06T08:27:32.393Z,102659.38
2022-10-06T08:29:58.684Z,102672.47
2022-10-06T08:32:26.311Z,102667.50
2022-10-06T08:34:52.852Z,102667.56
2022-10-06T08:37:20.549Z,102669.88
2022-10-06T08:39:47.010Z,102672.47
2022-10-06T08:42:16.856Z,102679.81
2022-10-06T08:44:44.828Z,102680.00
2022-10-06T08:47:13.257Z,102674.88
2022-10-06T08:49:42.882Z,102680.41
2022-10-06T08:52:16.675Z,102686.91
2022-10-06T08:54:47.615Z,102697.19
2022-10-06T08:57:17.504Z,102702.84
2022-10-06T08:59:44.935Z,102697.00
2022-10-06T09:02:20.260Z,102700.69
2022-10-06T09:04:47.908Z,102701.94
2022-10-06T09:07:16.204Z,102710.03
2022-10-06T09:09:46.577Z,102714.13
2022-10-06T09:12:17.109Z,102712.47
2022-10-06T09:14:45.981Z,102711.13
2022-10-06T09:17:14.753Z,102716.88
2022-10-06T09:19:43.297Z,102723.81
2022-10-06T09:22:17.292Z,102723.28
2022-10-06T09:24:47.190Z,102724.53
2022-10-06T09:27:16.249Z,102728.66
2022-10-06T09:29:42.563Z,102729.19
2022-10-06T09:32:08.940Z,102739.25
2022-10-06T09:34:37.274Z,102732.22
2022-10-06T09:37:04.624Z,102738.56
2022-10-06T09:39:33.248Z,102736.47
2022-10-06T09:42:03.536Z,102731.53
2022-10-06T09:44:31.237Z,102734.63
2022-10-06T09:46:57.536Z,102727.19
2022-10-06T09:49:24.345Z,102734.91
2022-10-06T09:52:08.949Z,102745.09
2022-10-06T09:54:36.562Z,102740.97
2022-10-06T09:57:08.253Z,102747.75
2022-10-06T09:59:39.991Z,102748.88
2022-10-06T10:02:20.612Z,102745.34
2022-10-06T10:04:51.374Z,102752.84
2022-10-06T10:07:21.869Z,102742.25
2022-10-06T10:09:49.516Z,102754.41
2022-10-06T10:12:16.771Z,102751.41
2022-10-06T10:14:43.062Z,102747.09
2022-10-06T10:17:12.617Z,102762.72
2022-10-06T10:19:39.153Z,102752.00
2022-10-06T10:22:05.520Z,102752.28
2022-10-06T10:24:45.294Z,102748.47
2022-10-06T10:27:18.382Z,102749.75
2022-10-06T10:29:59.759Z,102755.63
2022-10-06T10:32:36.473Z,102749.72
2022-10-06T10:35:06.524Z,102758.16
2022-10-06T10:37:37.202Z,102764.78
2022-10-06T10:40:07.645Z,102762.69
2022-10-06T10:42:38.334Z,102759.00
2022-10-06T10:45:07.194Z,102753.09
2022-10-06T10:47:35.228Z,102761.00
2022-10-06T10:50:05.956Z,102761.13
2022-10-06T10:52:34.443Z,102761.13
2022-10-06T10:55:05.939Z,102760.56
2022-10-06T10:57:35.722Z,102762.41
2022-10-06T11:00:04.960Z,102759.00
2022-10-06T11:02:31.350Z,102767.50
2022-10-06T11:05:14.698Z,102760.84
2022-10-06T11:07:43.567Z,102756.50
2022-10-06T11:10:12.896Z,102751.69
2022-10-06T11:12:56.614Z,102755.38
2022-10-06T11:15:29.990Z,102758.31
2022-10-06T11:17:58.385Z,102763.53
2022-10-06T11:20:31.940Z,102755.38
2022-10-06T11:23:03.290Z,102759.47
2022-10-06T11:25:35.951Z,102758.19
2022-10-06T11:28:08.729Z,102762.56
2022-10-06T11:30:53.101Z,102761.31
2022-10-06T11:33:21.908Z,102755.94
2022-10-06T11:35:48.705Z,102755.94
2022-10-06T11:38:20.842Z,102758.91
2022-10-06T11:40:51.451Z,102759.03
2022-10-06T11:43:22.827Z,102757.91
2022-10-06T11:46:04.519Z,102758.88
2022-10-06T11:48:31.960Z,102757.75
2022-10-06T11:51:26.966Z,102760.31
2022-10-06T11:53:53.941Z,102753.94
2022-10-06T11:56:38.161Z,102753.09
2022-10-06T11:59:11.950Z,102748.56
2022-10-06T12:01:51.133Z,102747.88
2022-10-06T12:04:23.444Z,102748.28
2022-10-06T12:06:55.092Z,102739.22
2022-10-06T12:09:39.020Z,102742.94
2022-10-06T12:12:26.714Z,102745.72
2022-10-06T12:17:47.704Z,102745.94
2022-10-06T12:20:16.804Z,102747.19
2022-10-06T12:22:45.491Z,102745.16
2022-10-06T12:25:16.148Z,102741.19
2022-10-06T12:27:48.535Z,102733.84
2022-10-06T12:30:19.550Z,102741.31
2022-10-06T12:32:50.992Z,102740.31
2022-10-06T12:35:24.984Z,102723.66
2022-10-06T12:37:54.612Z,102727.19
2022-10-06T12:40:39.906Z,102732.00
2022-10-06T12:43:24.747Z,102723.81
2022-10-06T12:45:55.154Z,102734.72
2022-10-06T12:48:24.507Z,102734.88
2022-10-06T12:50:54.588Z,102730.81
2022-10-06T12:53:25.043Z,102734.81
2022-10-06T12:55:52.616Z,102719.13
2022-10-06T12:58:19.392Z,102717.28
2022-10-06T13:00:46.361Z,102720.28
2022-10-06T13:03:17.018Z,102712.75
2022-10-06T13:05:48.822Z,102715.44
2022-10-06T13:08:21.375Z,102717.28
2022-10-06T13:10:47.655Z,102713.03
2022-10-06T13:13:20.415Z,102715.34
2022-10-06T13:15:46.724Z,102716.03
2022-10-06T13:18:14.306Z,102707.59
2022-10-06T13:20:41.793Z,102712.66
2022-10-06T13:23:24.130Z,102714.22
2022-10-06T13:25:52.937Z,102714.06
2022-10-06T13:28:20.280Z,102710.53
2022-10-06T13:30:49.395Z,102711.97
2022-10-06T13:33:15.912Z,102709.00
2022-10-06T13:35:42.403Z,102707.31
2022-10-06T13:38:08.779Z,102704.63
2022-10-06T13:40:44.502Z,102707.88
2022-10-06T13:43:15.524Z,102702.69
2022-10-06T13:45:42.358Z,102698.84
2022-10-06T13:48:12.993Z,102707.59
2022-10-06T13:50:44.421Z,102704.19
2022-10-06T13:53:21.439Z,102698.00
2022-10-06T13:55:49.953Z,102700.53
2022-10-06T13:58:17.700Z,102700.53
2022-10-06T14:00:48.448Z,102699.53
2022-10-06T14:03:20.537Z,102702.94
2022-10-06T14:05:46.854Z,102702.78
2022-10-06T14:08:19.337Z,102701.94
2022-10-06T14:10:47.027Z,102704.47
2022-10-06T14:13:16.439Z,102704.75
2022-10-06T14:15:46.045Z,102705.31
2022-10-06T14:18:17.036Z,102699.13
2022-10-06T14:20:44.536Z,102712.38
2022-10-06T14:23:29.400Z,102713.50
2022-10-06T14:25:55.670Z,102709.84
2022-10-06T14:28:23.316Z,102710.69
2022-10-06T14:30:49.766Z,102720.84
2022-10-06T14:33:16.091Z,102713.50
2022-10-06T14:35:42.575Z,102710.69
2022-10-06T14:38:08.880Z,102712.91
2022-10-06T14:40:35.509Z,102704.19
2022-10-06T14:43:01.780Z,102704.72
2022-10-06T14:45:29.455Z,102706.13
2022-10-06T14:47:55.753Z,102707.09
2022-10-06T14:50:22.053Z,102697.88
2022-10-06T14:52:48.322Z,102700.34
2022-10-06T14:55:14.608Z,102694.69
2022-10-06T14:57:40.893Z,102699.00
2022-10-06T15:00:08.098Z,102698.13
2022-10-06T15:02:35.835Z,102700.19
2022-10-06T15:05:02.171Z,102694.72
2022-10-06T15:07:28.454Z,102696.75
2022-10-06T15:09:54.751Z,102688.94
2022-10-06T15:12:21.049Z,102694.34
2022-10-06T15:14:47.331Z,102689.72
2022-10-06T15:17:13.651Z,102686.38
2022-10-06T15:19:41.267Z,102690.81
2022-10-06T15:22:07.554Z,102687.16
2022-10-06T15:24:33.850Z,102690.75
2022-10-06T15:27:00.137Z,102684.69
2022-10-06T15:29:26.689Z,102682.56
2022-10-06T15:31:53.053Z,102680.41
2022-10-06T15:34:20.570Z,102686.91
2022-10-06T15:36:48.258Z,102682.41
2022-10-06T15:39:15.464Z,102681.66
2022-10-06T15:41:42.819Z,102679.88
2022-10-06T15:44:11.886Z,102681.94
2022-10-06T15:46:38.931Z,102683.78
2022-10-06T15:49:06.184Z,102681.78
2022-10-06T15:51:33.195Z,102680.38
2022-10-06T15:54:00.849Z,102678.19
2022-10-06T15:56:28.305Z,102681.56
2022-10-06T15:58:54.734Z,102675.22
2022-10-06T16:01:25.249Z,102682.78
2022-10-06T16:03:51.556Z,102679.72
2022-10-06T16:06:17.861Z,102682.22
2022-10-06T16:08:44.163Z,102681.84
2022-10-06T16:11:11.812Z,102681.88
2022-10-06T16:13:38.100Z,102678.78
2022-10-06T16:16:04.543Z,102672.31
2022-10-06T16:18:31.309Z,102671.22
2022-10-06T16:20:57.579Z,102685.03
2022-10-06T16:23:23.875Z,102675.72
2022-10-06T16:25:50.179Z,102667.97
2022-10-06T16:28:17.809Z,102667.69
2022-10-06T16:30:53.297Z,102664.63
2022-10-06T16:33:19.623Z,102670.41
2022-10-06T16:35:52.780Z,102671.78
2022-10-06T16:38:19.051Z,102674.72
2022-10-06T16:40:52.489Z,102673.03
2022-10-06T16:43:20.108Z,102675.13
2022-10-06T16:45:57.227Z,102671.72
2022-10-06T16:48:27.912Z,102677.03
2022-10-06T16:51:05.042Z,102675.97
2022-10-06T16:53:38.536Z,102678.63
2022-10-06T16:56:05.510Z,102680.16
2022-10-06T16:58:37.226Z,102676.16
2022-10-06T17:01:03.640Z,102679.25
2022-10-06T17:03:30.064Z,102679.78
2022-10-06T17:06:01.303Z,102671.59
2022-10-06T17:08:27.583Z,102669.47
2022-10-06T17:11:04.422Z,102665.59
2022-10-06T17:13:30.911Z,102680.34
2022-10-06T17:15:59.547Z,102680.84
2022-10-06T17:18:25.942Z,102678.72
2022-10-06T17:20:56.229Z,102677.41
2022-10-06T17:23:22.516Z,102680.34
2022-10-06T17:25:58.906Z,102680.13
2022-10-06T17:28:25.223Z,102674.47
2022-10-06T17:30:51.740Z,102672.34
2022-10-06T17:33:19.393Z,102674.66
2022-10-06T17:35:45.749Z,102684.00
2022-10-06T17:38:14.324Z,102680.84
2022-10-06T17:40:42.791Z,102679.28
2022-10-06T17:43:09.129Z,102678.94
2022-10-06T17:45:37.376Z,102673.13
2022-10-06T17:48:03.671Z,102676.44
2022-10-06T17:50:31.316Z,102675.00
2022-10-06T17:52:57.623Z,102673.81
2022-10-06T17:55:23.990Z,102673.47
2022-10-06T17:57:50.316Z,102673.97
2022-10-06T18:00:16.665Z,102672.38
2022-10-06T18:02:43.618Z,102668.28
2022-10-06T18:05:10.206Z,102680.28
2022-10-06T18:07:37.956Z,102678.84
2022-10-06T18:10:04.511Z,102673.88
2022-10-06T18:12:30.811Z,102675.94
2022-10-06T18:14:57.112Z,102675.22
2022-10-06T18:17:23.418Z,102672.91
2022-10-06T18:19:49.726Z,102667.09
2022-10-06T18:22:16.008Z,102671.13
2022-10-06T18:24:43.625Z,102673.16
2022-10-06T18:27:09.954Z,102676.09
2022-10-06T18:29:36.878Z,102674.50
2022-10-06T18:37:36.369Z,102668.22
2022-10-06T18:40:04.207Z,102672.94
2022-10-06T18:42:30.520Z,102669.78
2022-10-06T18:44:56.809Z,102669.28
2022-10-06T18:47:23.077Z,102665.44
2022-10-06T18:49:49.379Z,102664.06
2022-10-06T18:52:15.673Z,102660.75
2022-10-06T18:54:41.962Z,102662.72
2022-10-06T18:57:09.773Z,102669.22
2022-10-06T18:59:36.063Z,102670.41
2022-10-06T19:02:02.406Z,102668.03
2022-10-06T19:04:28.914Z,102660.25
2022-10-06T19:06:55.395Z,102668.00
2022-10-06T19:09:27.118Z,102669.06
2022-10-06T19:11:55.076Z,102668.44
2022-10-06T19:14:23.742Z,102659.97
2022-10-06T19:16:51.529Z,102666.59
2022-10-06T19:19:18.804Z,102673.97
2022-10-06T19:21:46.633Z,102666.22
2022-10-06T19:24:13.793Z,102669.09
2022-10-06T19:26:45.132Z,102663.06
2022-10-06T19:29:12.366Z,102664.13
2022-10-06T19:31:42.685Z,102677.78
2022-10-06T19:34:09.553Z,102675.47
2022-10-06T19:36:35.921Z,102670.50
2022-10-06T19:39:02.646Z,102668.91
2022-10-06T19:41:28.970Z,102671.78
2022-10-06T19:43:56.655Z,102667.69
2022-10-06T19:46:22.993Z,102660.88
2022-10-06T19:48:54.746Z,102667.47
2022-10-06T19:51:21.014Z,102658.50
2022-10-06T19:53:47.336Z,102654.38
2022-10-06T19:56:13.635Z,102655.13
2022-10-06T19:58:39.906Z,102654.97
2022-10-06T20:01:06.414Z,102654.88
2022-10-06T20:03:36.081Z,102659.44
2022-10-06T20:06:03.899Z,102660.66
2022-10-06T20:08:30.199Z,102658.22
2022-10-06T20:11:01.130Z,102657.72
2022-10-06T20:13:27.405Z,102669.72
2022-10-06T20:15:53.676Z,102664.97
2022-10-06T20:18:19.958Z,102666.16
2022-10-06T20:20:55.070Z,102664.78
2022-10-06T20:23:22.769Z,102662.34
2022-10-06T20:25:49.060Z,102662.34
2022-10-06T20:28:15.369Z,102657.88
2022-10-06T20:30:41.726Z,102661.41
2022-10-06T20:33:08.073Z,102659.59
2022-10-06T20:35:34.355Z,102665.84
2022-10-06T20:38:00.645Z,102658.94
2022-10-06T20:40:28.256Z,102658.94
2022-10-06T20:42:54.529Z,102666.91
2022-10-06T20:45:20.824Z,102667.66
2022-10-06T20:47:47.335Z,102665.00
2022-10-06T20:50:13.916Z,102667.66
2022-10-06T20:52:40.189Z,102669.47
2022-10-06T20:55:07.250Z,102667.88
2022-10-06T20:57:34.855Z,102661.00
2022-10-06T21:00:01.124Z,102656.22
2022-10-06T21:02:27.538Z,102654.06
2022-10-06T21:04:53.927Z,102658.84
2022-10-06T21:07:20.249Z,102655.59
2022-10-06T21:09:51.264Z,102655.69
2022-10-06T21:12:18.440Z,102649.41
2022-10-06T21:14:46.143Z,102653.88
2022-10-06T21:17:12.477Z,102646.97
2022-10-06T21:19:38.818Z,102646.13
2022-10-06T21:22:05.226Z,102642.63
2022-10-06T21:24:31.563Z,102645.16
2022-10-06T21:26:57.895Z,102645.81
2022-10-06T21:29:24.228Z,102636.91
2022-10-06T21:31:51.873Z,102634.94
2022-10-06T21:34:18.187Z,102631.44
2022-10-06T21:36:44.519Z,102632.00
2022-10-06T21:39:11.190Z,102632.97
2022-10-06T21:41:38.189Z,102627.66
2022-10-06T21:44:05.464Z,102620.53
2022-10-06T21:46:32.971Z,102619.78
2022-10-06T21:49:01.427Z,102618.63
2022-10-06T21:51:28.609Z,102613.13
2022-10-06T21:53:55.323Z,102612.38
2022-10-06T21:56:21.644Z,102608.78
2022-10-06T21:58:48.197Z,102602.09
2022-10-06T22:01:14.561Z,102606.56
2022-10-06T22:03:40.890Z,102606.56
2022-10-06T22:06:08.841Z,102604.53
2022-10-06T22:08:36.844Z,102597.94
2022-10-06T22:11:03.802Z,102603.25
2022-10-06T22:13:30.109Z,102593.69
2022-10-06T22:15:56.450Z,102590.41
2022-10-06T22:18:22.790Z,102593.28
2022-10-06T22:20:49.111Z,102590.84
2022-10-06T22:23:16.828Z,102596.16
2022-10-06T22:25:43.152Z,102597.97
2022-10-06T22:28:09.529Z,102593.28
2022-10-06T22:30:35.871Z,102594.25
2022-10-06T22:33:02.192Z,102590.09
2022-10-06T22:35:28.501Z,102592.97
2022-10-06T22:37:54.815Z,102584.28
2022-10-06T22:40:22.548Z,102580.97
2022-10-06T22:42:48.883Z,102594.66
2022-10-06T22:45:15.197Z,102583.44
2022-10-06T22:47:41.831Z,102580.03
2022-10-06T22:50:08.477Z,102576.63
2022-10-06T22:52:34.800Z,102571.13
2022-10-06T22:55:01.131Z,102563.16
2022-10-06T22:57:28.815Z,102568.47
2022-10-06T22:59:55.117Z,102565.81
2022-10-06T23:02:21.443Z,102562.09
2022-10-06T23:04:47.755Z,102561.03
2022-10-06T23:07:14.083Z,102551.91
2022-10-06T23:09:40.406Z,102553.41
2022-10-06T23:12:06.724Z,102549.78
2022-10-06T23:14:34.388Z,102546.28
2022-10-06T23:17:00.712Z,102546.41
2022-10-06T23:19:27.044Z,102541.94
2022-10-06T23:21:53.359Z,102540.25
2022-10-06T23:24:19.697Z,102546.41
2022-10-06T23:26:46.012Z,102540.34
2022-10-06T23:29:12.327Z,102546.69
2022-10-06T23:31:40.090Z,102541.41
2022-10-06T23:34:06.554Z,102540.53
2022-10-06T23:36:32.894Z,102532.47
2022-10-06T23:38:59.298Z,102541.28
2022-10-06T23:41:25.643Z,102532.59
2022-10-06T23:43:51.972Z,102536.19
2022-10-06T23:46:18.355Z,102534.50
2022-10-06T23:48:46.079Z,102524.72
2022-10-06T23:51:13.394Z,102518.56
2022-10-06T23:53:39.812Z,102525.81
2022-10-06T23:56:06.265Z,102525.06
2022-10-06T23:58:32.609Z,102523.69
